Time,TemperatureF,DewpointF,PressureIn,WindDirection,WindDirectionDegrees,WindSpeedMPH,WindSpeedGustMPH,Humidity,HourlyPrecipIn,Conditions,Clouds,dailyrainin,SolarRadiationWatts/m^2,SoftwareType,DateUTC
2013-04-28 00:01:00,54.9,53.2,30.09,SE,142,4.0,11.0,94,0.23,,,0.32,0.0,meteohub,2013-04-28 04:01:00,
2013-04-28 00:02:00,54.9,53.2,30.09,ESE,111,3.0,11.0,94,0.23,,,0.32,0.0,meteohub,2013-04-28 04:02:00,
2013-04-28 00:06:00,54.9,53.2,30.09,South,169,2.0,11.0,94,0.22,,,0.32,0.0,meteohub,2013-04-28 04:06:00,
2013-04-28 00:10:00,54.9,53.2,30.09,SE,142,4.0,11.0,94,0.22,,,0.33,0.0,meteohub,2013-04-28 04:10:00,
2013-04-28 00:16:00,54.9,53.2,30.08,SSE,149,1.0,10.0,94,0.21,,,0.33,0.0,meteohub,2013-04-28 04:16:00,
2013-04-28 00:21:00,54.9,53.2,30.09,SSE,159,4.0,10.0,94,0.17,,,0.34,0.0,meteohub,2013-04-28 04:21:00,
2013-04-28 00:26:00,54.9,53.2,30.08,SE,125,3.0,10.0,94,0.13,,,0.34,0.0,meteohub,2013-04-28 04:26:00,
2013-04-28 00:31:00,54.9,53.2,30.07,SSE,160,4.0,11.0,94,0.09,,,0.35,0.0,meteohub,2013-04-28 04:31:00,
2013-04-28 00:36:00,54.9,53.2,30.07,SE,142,7.0,11.0,94,0.09,,,0.35,0.0,meteohub,2013-04-28 04:36:00,
2013-04-28 00:41:00,54.9,53.2,30.06,SSE,147,5.0,11.0,94,0.09,,,0.36,0.0,meteohub,2013-04-28 04:41:00,
2013-04-28 00:46:00,54.9,53.2,30.06,SSE,165,6.0,10.0,94,0.09,,,0.36,0.0,meteohub,2013-04-28 04:46:00,
2013-04-28 00:51:00,54.9,53.2,30.06,SSE,159,4.0,10.0,94,0.07,,,0.36,0.0,meteohub,2013-04-28 04:51:00,
2013-04-28 00:56:00,54.9,53.2,30.06,SE,141,1.0,10.0,94,0.07,,,0.37,0.0,meteohub,2013-04-28 04:56:00,
2013-04-28 01:01:00,54.9,53.2,30.06,SE,134,2.0,9.0,94,0.05,,,0.37,0.0,meteohub,2013-04-28 05:01:00,
2013-04-28 01:06:00,54.9,53.2,30.06,SE,138,5.0,9.0,94,0.04,,,0.37,0.0,meteohub,2013-04-28 05:06:00,
2013-04-28 01:12:00,54.9,53.2,30.06,SE,138,2.0,12.0,94,0.04,,,0.37,0.0,meteohub,2013-04-28 05:12:00,
2013-04-28 01:17:00,54.9,53.2,30.06,SE,140,2.0,12.0,94,0.03,,,0.37,0.0,meteohub,2013-04-28 05:17:00,
2013-04-28 01:22:00,55.0,53.4,30.05,South,170,4.0,12.0,94,0.03,,,0.37,0.0,meteohub,2013-04-28 05:22:00,
2013-04-28 01:27:00,55.0,53.4,30.05,SSE,150,7.0,12.0,94,0.02,,,0.37,0.0,meteohub,2013-04-28 05:27:00,
2013-04-28 01:32:00,55.0,53.4,30.05,SSE,154,4.0,12.0,94,0.02,,,0.37,0.0,meteohub,2013-04-28 05:32:00,
2013-04-28 01:37:00,55.0,53.4,30.05,SSE,156,5.0,11.0,94,0.02,,,0.37,0.0,meteohub,2013-04-28 05:37:00,
2013-04-28 01:42:00,55.0,53.4,30.05,SSW,198,7.0,11.0,94,0.02,,,0.38,0.0,meteohub,2013-04-28 05:42:00,
2013-04-28 01:47:00,55.0,53.4,30.04,SE,131,4.0,11.0,94,0.02,,,0.38,0.0,meteohub,2013-04-28 05:47:00,
2013-04-28 01:52:00,55.0,53.4,30.04,SE,141,2.0,9.0,94,0.03,,,0.39,0.0,meteohub,2013-04-28 05:52:00,
2013-04-28 01:57:00,55.0,53.4,30.04,South,175,4.0,9.0,94,0.03,,,0.40,0.0,meteohub,2013-04-28 05:57:00,
2013-04-28 02:02:00,55.0,53.4,30.04,SE,129,7.0,10.0,94,0.04,,,0.41,0.0,meteohub,2013-04-28 06:02:00,
2013-04-28 02:07:00,55.0,53.4,30.04,SSE,163,6.0,10.0,94,0.05,,,0.42,0.0,meteohub,2013-04-28 06:07:00,
2013-04-28 02:12:00,55.0,53.4,30.03,SSE,151,4.0,10.0,94,0.07,,,0.44,0.0,meteohub,2013-04-28 06:12:00,
2013-04-28 02:17:00,55.0,53.4,30.03,SSE,168,4.0,11.0,94,0.09,,,0.46,0.0,meteohub,2013-04-28 06:17:00,
2013-04-28 02:22:00,55.0,53.4,30.02,South,184,3.0,11.0,94,0.10,,,0.47,0.0,meteohub,2013-04-28 06:22:00,
2013-04-28 02:27:00,55.0,53.4,30.02,SSE,163,5.0,12.0,94,0.13,,,0.50,0.0,meteohub,2013-04-28 06:27:00,
2013-04-28 02:32:00,54.9,53.2,30.01,SE,134,9.0,12.0,94,0.15,,,0.52,0.0,meteohub,2013-04-28 06:32:00,
2013-04-28 02:37:00,55.0,53.4,30.00,SE,130,6.0,12.0,94,0.15,,,0.53,0.0,meteohub,2013-04-28 06:37:00,
2013-04-28 02:42:00,54.9,53.2,29.99,SSE,154,5.0,13.0,94,0.17,,,0.55,0.0,meteohub,2013-04-28 06:42:00,
2013-04-28 02:47:00,55.0,53.4,29.98,ESE,123,6.0,16.0,94,0.19,,,0.56,0.0,meteohub,2013-04-28 06:47:00,
2013-04-28 02:52:00,55.0,53.4,29.97,SE,132,13.0,16.0,94,0.19,,,0.58,0.0,meteohub,2013-04-28 06:52:00,
2013-04-28 02:57:00,55.0,53.4,29.95,SE,129,7.0,20.0,94,0.20,,,0.60,0.0,meteohub,2013-04-28 06:57:00,
2013-04-28 03:02:00,55.2,53.6,29.94,SSE,154,7.0,20.0,94,0.20,,,0.61,0.0,meteohub,2013-04-28 07:02:00,
2013-04-28 03:07:00,55.2,53.6,29.90,SSE,148,8.0,22.0,94,0.19,,,0.62,0.0,meteohub,2013-04-28 07:07:00,
2013-04-28 03:12:00,55.2,53.6,29.92,SSE,155,13.0,25.0,94,0.19,,,0.64,0.0,meteohub,2013-04-28 07:12:00,
2013-04-28 03:17:00,55.4,53.4,29.95,SSE,167,6.0,25.0,93,0.19,,,0.65,0.0,meteohub,2013-04-28 07:17:00,
2013-04-28 03:22:00,55.4,53.4,29.95,SSE,162,8.0,25.0,93,0.17,,,0.65,0.0,meteohub,2013-04-28 07:22:00,
2013-04-28 03:27:00,55.4,53.4,29.96,South,175,9.0,26.0,93,0.16,,,0.66,0.0,meteohub,2013-04-28 07:27:00,
2013-04-28 03:32:00,55.4,53.4,29.96,SSE,148,17.0,26.0,93,0.14,,,0.66,0.0,meteohub,2013-04-28 07:32:00,
2013-04-28 03:37:00,55.4,53.4,29.94,ESE,109,10.0,26.0,93,0.12,,,0.66,0.0,meteohub,2013-04-28 07:37:00,
2013-04-28 03:42:00,55.6,53.2,29.93,SSE,153,8.0,19.0,92,0.10,,,0.66,0.0,meteohub,2013-04-28 07:42:00,
2013-04-28 03:47:00,55.6,53.2,29.99,South,181,9.0,20.0,92,0.09,,,0.66,0.0,meteohub,2013-04-28 07:47:00,
2013-04-28 03:52:00,55.8,53.4,29.99,SSE,156,5.0,20.0,92,0.07,,,0.66,0.0,meteohub,2013-04-28 07:52:00,
2013-04-28 03:57:00,55.6,53.2,29.98,SSE,167,7.0,20.0,92,0.06,,,0.66,0.0,meteohub,2013-04-28 07:57:00,
2013-04-28 04:02:00,55.6,53.2,29.98,South,171,4.0,14.0,92,0.05,,,0.66,0.0,meteohub,2013-04-28 08:02:00,
2013-04-28 04:07:00,55.6,53.2,29.99,South,186,2.0,11.0,92,0.03,,,0.66,0.0,meteohub,2013-04-28 08:07:00,
2013-04-28 04:12:00,55.6,53.2,29.98,SSE,157,2.0,11.0,92,0.02,,,0.66,0.0,meteohub,2013-04-28 08:12:00,
2013-04-28 04:18:00,55.6,53.2,29.98,SSE,157,4.0,11.0,92,0.01,,,0.66,0.0,meteohub,2013-04-28 08:18:00,
2013-04-28 04:23:00,55.4,53.1,29.98,SW,221,4.0,10.0,92,0.00,,,0.66,0.0,meteohub,2013-04-28 08:23:00,
2013-04-28 04:28:00,55.2,52.9,29.98,SSE,167,9.0,10.0,92,0.00,,,0.66,0.0,meteohub,2013-04-28 08:28:00,
2013-04-28 04:33:00,55.2,52.9,29.98,SSE,158,6.0,9.0,92,0.00,,,0.66,0.0,meteohub,2013-04-28 08:33:00,
2013-04-28 04:38:00,55.2,52.9,29.98,South,186,12.0,12.0,92,0.00,,,0.66,0.0,meteohub,2013-04-28 08:38:00,
2013-04-28 04:43:00,55.2,52.9,29.98,South,169,6.0,12.0,92,0.00,,,0.66,0.0,meteohub,2013-04-28 08:43:00,
2013-04-28 04:48:00,55.2,52.9,29.98,SE,146,2.0,12.0,92,0.00,,,0.66,0.0,meteohub,2013-04-28 08:48:00,
2013-04-28 04:53:00,55.2,52.9,29.99,South,173,4.0,12.0,92,0.00,,,0.66,0.0,meteohub,2013-04-28 08:53:00,
2013-04-28 04:58:00,55.0,52.7,29.98,South,172,5.0,11.0,92,0.00,,,0.66,0.0,meteohub,2013-04-28 08:58:00,
2013-04-28 05:03:00,55.0,52.7,29.98,SSE,162,2.0,10.0,92,0.00,,,0.66,0.0,meteohub,2013-04-28 09:03:00,
2013-04-28 05:09:00,55.0,52.7,29.98,SSE,156,6.0,10.0,92,0.00,,,0.66,0.0,meteohub,2013-04-28 09:09:00,
2013-04-28 05:14:00,54.9,52.9,29.98,SE,144,4.0,9.0,93,0.00,,,0.66,0.0,meteohub,2013-04-28 09:14:00,
2013-04-28 05:19:00,54.9,52.9,29.97,SE,127,7.0,9.0,93,0.00,,,0.66,0.0,meteohub,2013-04-28 09:19:00,
2013-04-28 05:24:00,54.9,52.9,29.96,SE,144,6.0,8.0,93,0.00,,,0.66,0.0,meteohub,2013-04-28 09:24:00,
2013-04-28 05:29:00,54.7,52.7,29.96,ESE,123,1.0,8.0,93,0.00,,,0.66,0.0,meteohub,2013-04-28 09:29:00,
2013-04-28 05:34:00,54.7,52.7,29.96,SSE,152,5.0,8.0,93,0.00,,,0.66,0.0,meteohub,2013-04-28 09:34:00,
2013-04-28 05:39:00,54.3,52.3,29.96,ESE,117,3.0,8.0,93,0.00,,,0.66,0.0,meteohub,2013-04-28 09:39:00,
2013-04-28 05:44:00,54.3,52.3,29.97,South,169,3.0,7.0,93,0.00,,,0.66,0.0,meteohub,2013-04-28 09:44:00,
2013-04-28 05:49:00,54.1,52.2,29.97,South,179,4.0,7.0,93,0.00,,,0.66,0.0,meteohub,2013-04-28 09:49:00,
2013-04-28 05:54:00,54.1,52.2,29.97,SE,145,2.0,9.0,93,0.00,,,0.66,0.0,meteohub,2013-04-28 09:54:00,
2013-04-28 05:59:00,54.0,52.0,29.96,SSE,151,2.0,9.0,93,0.00,,,0.66,0.0,meteohub,2013-04-28 09:59:00,
2013-04-28 06:04:00,54.0,52.3,29.96,SE,134,2.0,9.0,94,0.00,,,0.66,0.0,meteohub,2013-04-28 10:04:00,
2013-04-28 06:10:00,53.8,52.2,29.96,SE,140,2.0,5.0,94,0.00,,,0.66,0.0,meteohub,2013-04-28 10:10:00,
2013-04-28 06:15:00,53.8,52.2,29.95,SE,140,0.0,5.0,94,0.00,,,0.66,0.0,meteohub,2013-04-28 10:15:00,
2013-04-28 06:20:00,53.8,52.2,29.95,SE,133,3.0,5.0,94,0.00,,,0.66,0.0,meteohub,2013-04-28 10:20:00,
2013-04-28 06:25:00,54.0,52.3,29.94,SE,143,3.0,7.0,94,0.00,,,0.66,0.0,meteohub,2013-04-28 10:25:00,
2013-04-28 06:30:00,54.0,52.3,29.95,SSE,162,1.0,7.0,94,0.00,,,0.66,0.0,meteohub,2013-04-28 10:30:00,
2013-04-28 06:35:00,54.0,52.3,29.95,SSE,152,0.0,6.0,94,0.00,,,0.66,0.0,meteohub,2013-04-28 10:35:00,
2013-04-28 06:40:00,54.0,52.3,29.96,SSW,205,1.0,4.0,94,0.00,,,0.66,0.0,meteohub,2013-04-28 10:40:00,
2013-04-28 06:45:00,53.8,52.2,29.96,SSW,194,0.0,4.0,94,0.00,,,0.66,0.0,meteohub,2013-04-28 10:45:00,
2013-04-28 06:50:00,53.8,52.2,29.96,SSW,194,0.0,3.0,94,0.00,,,0.66,0.0,meteohub,2013-04-28 10:50:00,
2013-04-28 06:55:00,53.8,52.2,29.96,SSW,194,0.0,2.0,94,0.00,,,0.66,7.0,meteohub,2013-04-28 10:55:00,
2013-04-28 07:00:00,53.8,52.2,29.96,SSW,194,0.0,1.0,94,0.00,,,0.66,11.0,meteohub,2013-04-28 11:00:00,
2013-04-28 07:06:00,53.6,52.0,29.96,SSW,194,0.0,1.0,94,0.00,,,0.66,11.0,meteohub,2013-04-28 11:06:00,
2013-04-28 07:11:00,53.4,51.8,29.97,SSW,194,0.0,1.0,94,0.00,,,0.66,14.0,meteohub,2013-04-28 11:11:00,
2013-04-28 07:16:00,53.4,51.8,29.97,SSW,194,0.0,1.0,94,0.00,,,0.66,21.0,meteohub,2013-04-28 11:16:00,
2013-04-28 07:21:00,53.2,51.6,29.96,SSE,152,1.0,3.0,94,0.00,,,0.66,26.0,meteohub,2013-04-28 11:21:00,
2013-04-28 07:26:00,53.2,51.6,29.96,SE,146,1.0,3.0,94,0.00,,,0.66,28.0,meteohub,2013-04-28 11:26:00,
2013-04-28 07:31:00,53.1,51.4,29.96,East,95,0.0,3.0,94,0.00,,,0.66,21.0,meteohub,2013-04-28 11:31:00,
2013-04-28 07:36:00,53.1,51.4,29.96,SE,125,0.0,3.0,94,0.00,,,0.66,23.0,meteohub,2013-04-28 11:36:00,
2013-04-28 07:41:00,53.1,51.6,29.96,SE,138,0.0,3.0,95,0.00,,,0.66,25.0,meteohub,2013-04-28 11:41:00,
2013-04-28 07:46:00,53.1,51.6,29.96,SE,140,3.0,3.0,95,0.00,,,0.66,39.0,meteohub,2013-04-28 11:46:00,
2013-04-28 07:51:00,53.2,51.8,29.96,SE,137,2.0,4.0,95,0.00,,,0.66,51.0,meteohub,2013-04-28 11:51:00,
2013-04-28 07:56:00,53.2,51.8,29.96,ESE,112,1.0,5.0,95,0.00,,,0.66,54.0,meteohub,2013-04-28 11:56:00,
2013-04-28 08:01:00,53.4,52.0,29.96,SSE,151,1.0,5.0,95,0.00,,,0.66,105.0,meteohub,2013-04-28 12:01:00,
2013-04-28 08:07:00,53.8,52.3,29.96,SE,144,2.0,5.0,95,0.00,,,0.66,144.0,meteohub,2013-04-28 12:07:00,
2013-04-28 08:12:00,54.1,53.1,29.96,SE,136,4.0,6.0,96,0.00,,,0.66,221.0,meteohub,2013-04-28 12:12:00,
2013-04-28 08:17:00,54.9,53.4,29.96,ESE,109,3.0,6.0,95,0.00,,,0.66,297.0,meteohub,2013-04-28 12:17:00,
2013-04-28 08:22:00,55.6,54.0,29.95,South,174,2.0,6.0,94,0.00,,,0.66,287.0,meteohub,2013-04-28 12:22:00,
2013-04-28 08:27:00,56.1,54.1,29.95,SE,131,1.0,6.0,93,0.00,,,0.66,116.0,meteohub,2013-04-28 12:27:00,
2013-04-28 08:32:00,56.5,54.1,29.95,SE,125,2.0,6.0,92,0.00,,,0.66,93.0,meteohub,2013-04-28 12:32:00,
2013-04-28 08:37:00,56.8,54.3,29.95,SE,142,2.0,6.0,91,0.00,,,0.66,193.0,meteohub,2013-04-28 12:37:00,
2013-04-28 08:42:00,57.4,55.0,29.96,South,181,2.0,6.0,92,0.00,,,0.66,388.0,meteohub,2013-04-28 12:42:00,
2013-04-28 08:47:00,57.9,55.6,29.96,South,184,3.0,6.0,92,0.00,,,0.66,396.0,meteohub,2013-04-28 12:47:00,
2013-04-28 08:52:00,58.6,55.0,29.95,SW,234,2.0,9.0,88,0.00,,,0.66,274.0,meteohub,2013-04-28 12:52:00,
2013-04-28 08:57:00,58.6,55.0,29.93,SE,133,6.0,9.0,88,0.00,,,0.66,65.0,meteohub,2013-04-28 12:57:00,
2013-04-28 09:02:00,58.1,54.5,29.94,South,177,13.0,13.0,88,0.02,,,0.68,63.0,meteohub,2013-04-28 13:02:00,
2013-04-28 09:07:00,57.6,54.3,29.94,SSE,152,4.0,14.0,89,0.02,,,0.68,128.0,meteohub,2013-04-28 13:07:00,
2013-04-28 09:12:00,57.4,54.5,29.94,SSE,167,6.0,14.0,90,0.02,,,0.68,207.0,meteohub,2013-04-28 13:12:00,
2013-04-28 09:17:00,57.6,55.0,29.95,South,171,10.0,14.0,91,0.02,,,0.68,341.0,meteohub,2013-04-28 13:17:00,
2013-04-28 09:22:00,57.9,55.0,29.95,SE,144,5.0,11.0,90,0.02,,,0.68,141.0,meteohub,2013-04-28 13:22:00,
2013-04-28 09:27:00,58.1,54.9,29.95,SSE,162,4.0,11.0,89,0.02,,,0.68,97.0,meteohub,2013-04-28 13:27:00,
2013-04-28 09:32:00,58.3,55.0,29.95,SE,139,4.0,12.0,89,0.02,,,0.68,160.0,meteohub,2013-04-28 13:32:00,
2013-04-28 09:37:00,58.5,54.9,29.94,SE,138,7.0,12.0,88,0.02,,,0.68,269.0,meteohub,2013-04-28 13:37:00,
2013-04-28 09:42:00,58.8,55.9,29.94,SSW,200,7.0,13.0,90,0.02,,,0.68,301.0,meteohub,2013-04-28 13:42:00,
2013-04-28 09:47:00,59.2,55.6,29.94,SE,137,5.0,13.0,88,0.02,,,0.68,202.0,meteohub,2013-04-28 13:47:00,
2013-04-28 09:52:00,59.4,55.8,29.94,SSW,205,4.0,13.0,88,0.02,,,0.68,236.0,meteohub,2013-04-28 13:52:00,
2013-04-28 09:57:00,59.5,55.6,29.94,SE,135,10.0,11.0,87,0.02,,,0.68,288.0,meteohub,2013-04-28 13:57:00,
2013-04-28 10:02:00,59.9,55.8,29.94,SSE,160,5.0,12.0,86,0.00,,,0.68,308.0,meteohub,2013-04-28 14:02:00,
2013-04-28 10:07:00,60.3,55.8,29.94,SE,142,8.0,12.0,85,0.00,,,0.68,325.0,meteohub,2013-04-28 14:07:00,
2013-04-28 10:12:00,60.4,55.9,29.94,South,175,5.0,12.0,85,0.00,,,0.68,394.0,meteohub,2013-04-28 14:12:00,
2013-04-28 10:18:00,61.0,56.5,29.94,South,188,8.0,18.0,85,0.00,,,0.68,424.0,meteohub,2013-04-28 14:18:00,
2013-04-28 10:23:00,61.3,56.1,29.95,SSW,205,6.0,18.0,83,0.01,,,0.69,257.0,meteohub,2013-04-28 14:23:00,
2013-04-28 10:28:00,61.3,56.1,29.95,South,188,4.0,16.0,83,0.01,,,0.69,406.0,meteohub,2013-04-28 14:28:00,
2013-04-28 10:33:00,61.5,55.9,29.95,WSW,249,6.0,15.0,82,0.01,,,0.69,601.0,meteohub,2013-04-28 14:33:00,
2013-04-28 10:38:00,61.9,56.3,29.95,SSW,210,10.0,21.0,82,0.01,,,0.69,345.0,meteohub,2013-04-28 14:38:00,
2013-04-28 10:43:00,62.1,55.8,29.94,East,92,8.0,21.0,80,0.01,,,0.69,429.0,meteohub,2013-04-28 14:43:00,
2013-04-28 10:48:00,62.8,56.5,29.95,SW,230,8.0,21.0,80,0.01,,,0.69,726.0,meteohub,2013-04-28 14:48:00,
2013-04-28 10:53:00,63.0,56.3,29.94,South,186,3.0,21.0,79,0.01,,,0.69,318.0,meteohub,2013-04-28 14:53:00,
2013-04-28 10:58:00,62.4,55.8,29.94,SSW,200,3.0,21.0,79,0.01,,,0.69,227.0,meteohub,2013-04-28 14:58:00,
2013-04-28 11:03:00,61.9,55.2,29.94,SE,127,11.0,17.0,79,0.01,,,0.69,271.0,meteohub,2013-04-28 15:03:00,
2013-04-28 11:08:00,62.1,55.8,29.94,SW,223,5.0,22.0,80,0.01,,,0.69,870.0,meteohub,2013-04-28 15:08:00,
2013-04-28 11:14:00,62.2,56.3,29.94,SE,144,5.0,22.0,81,0.01,,,0.69,311.0,meteohub,2013-04-28 15:14:00,
2013-04-28 11:19:00,62.2,55.9,29.95,SSW,198,6.0,22.0,80,0.00,,,0.69,436.0,meteohub,2013-04-28 15:19:00,
2013-04-28 11:24:00,62.4,55.8,29.95,SSE,158,9.0,20.0,79,0.00,,,0.69,243.0,meteohub,2013-04-28 15:24:00,
2013-04-28 11:29:00,62.2,55.9,29.95,SSE,168,5.0,21.0,80,0.00,,,0.69,343.0,meteohub,2013-04-28 15:29:00,
2013-04-28 11:34:00,62.6,56.3,29.95,SSE,158,6.0,21.0,80,0.00,,,0.69,425.0,meteohub,2013-04-28 15:34:00,
2013-04-28 11:39:00,63.1,56.5,29.95,SE,127,15.0,21.0,79,0.00,,,0.69,334.0,meteohub,2013-04-28 15:39:00,
2013-04-28 11:44:00,63.5,57.2,29.94,SSW,199,6.0,16.0,80,0.00,,,0.69,431.0,meteohub,2013-04-28 15:44:00,
2013-04-28 11:49:00,63.9,56.8,29.94,South,170,5.0,20.0,78,0.00,,,0.69,759.0,meteohub,2013-04-28 15:49:00,
2013-04-28 11:54:00,64.6,57.6,29.94,SSE,154,12.0,20.0,78,0.00,,,0.69,541.0,meteohub,2013-04-28 15:54:00,
2013-04-28 11:59:00,65.1,57.4,29.94,SSW,205,4.0,14.0,76,0.00,,,0.69,605.0,meteohub,2013-04-28 15:59:00,
2013-04-28 12:04:00,66.2,58.8,29.93,SSW,205,10.0,22.0,77,0.00,,,0.69,1179.0,meteohub,2013-04-28 16:04:00,
2013-04-28 12:10:00,66.0,57.2,29.94,SSW,195,12.0,22.0,73,0.00,,,0.69,420.0,meteohub,2013-04-28 16:10:00,
2013-04-28 12:15:00,65.1,56.7,29.94,South,184,4.0,22.0,74,0.00,,,0.69,406.0,meteohub,2013-04-28 16:15:00,
2013-04-28 12:20:00,64.9,57.2,29.94,South,188,4.0,17.0,76,0.00,,,0.69,369.0,meteohub,2013-04-28 16:20:00,
2013-04-28 12:25:00,65.5,57.4,29.94,SSE,154,8.0,17.0,75,0.00,,,0.69,387.0,meteohub,2013-04-28 16:25:00,
2013-04-28 12:30:00,64.9,56.8,29.94,South,181,8.0,16.0,75,0.00,,,0.69,178.0,meteohub,2013-04-28 16:30:00,
2013-04-28 12:35:00,64.6,57.2,29.94,South,181,8.0,22.0,77,0.00,,,0.69,255.0,meteohub,2013-04-28 16:35:00,
2013-04-28 12:40:00,64.4,56.7,29.93,SSE,148,9.0,22.0,76,0.00,,,0.69,188.0,meteohub,2013-04-28 16:40:00,
2013-04-28 12:45:00,64.4,57.0,29.93,WSW,244,10.0,15.0,77,0.00,,,0.69,285.0,meteohub,2013-04-28 16:45:00,
2013-04-28 12:50:00,64.8,57.4,29.93,SSE,163,6.0,15.0,77,0.00,,,0.69,431.0,meteohub,2013-04-28 16:50:00,
2013-04-28 12:55:00,65.7,57.9,29.92,SSE,165,6.0,15.0,76,0.00,,,0.69,563.0,meteohub,2013-04-28 16:55:00,
2013-04-28 13:00:00,66.4,58.3,29.92,SSE,154,8.0,15.0,75,0.00,,,0.69,840.0,meteohub,2013-04-28 17:00:00,
2013-04-28 13:06:00,66.9,57.9,29.91,South,169,5.0,14.0,73,0.00,,,0.69,564.0,meteohub,2013-04-28 17:06:00,
2013-04-28 13:11:00,66.9,57.9,29.91,South,181,7.0,16.0,73,0.00,,,0.69,471.0,meteohub,2013-04-28 17:11:00,
2013-04-28 13:16:00,66.9,59.2,29.91,SE,143,4.0,16.0,76,0.00,,,0.69,513.0,meteohub,2013-04-28 17:16:00,
2013-04-28 13:21:00,68.0,59.4,29.91,SW,225,7.0,15.0,74,0.00,,,0.69,376.0,meteohub,2013-04-28 17:21:00,
2013-04-28 13:26:00,67.8,58.5,29.91,SE,137,7.0,15.0,72,0.00,,,0.69,496.0,meteohub,2013-04-28 17:26:00,
2013-04-28 13:31:00,68.4,59.4,29.91,South,175,14.0,14.0,73,0.00,,,0.69,559.0,meteohub,2013-04-28 17:31:00,
2013-04-28 13:36:00,67.8,58.5,29.90,SW,227,4.0,17.0,72,0.00,,,0.69,543.0,meteohub,2013-04-28 17:36:00,
2013-04-28 13:41:00,67.6,57.6,29.90,WSW,239,6.0,18.0,70,0.00,,,0.69,272.0,meteohub,2013-04-28 17:41:00,
2013-04-28 13:46:00,67.3,57.9,29.90,SSW,201,5.0,18.0,72,0.00,,,0.69,366.0,meteohub,2013-04-28 17:46:00,
2013-04-28 13:51:00,68.4,59.0,29.90,South,188,8.0,16.0,72,0.00,,,0.69,541.0,meteohub,2013-04-28 17:51:00,
2013-04-28 13:57:00,68.7,59.0,29.89,South,181,10.0,16.0,71,0.00,,,0.69,378.0,meteohub,2013-04-28 17:57:00,
2013-04-28 14:02:00,68.7,58.5,29.89,South,169,6.0,16.0,70,0.00,,,0.69,454.0,meteohub,2013-04-28 18:02:00,
2013-04-28 14:07:00,69.3,58.6,29.89,SSW,205,4.0,16.0,69,0.00,,,0.69,1032.0,meteohub,2013-04-28 18:07:00,
2013-04-28 14:12:00,69.4,58.8,29.89,SSW,205,4.0,18.0,69,0.00,,,0.69,445.0,meteohub,2013-04-28 18:12:00,
2013-04-28 14:17:00,69.1,58.8,29.89,West,279,13.0,18.0,70,0.00,,,0.69,399.0,meteohub,2013-04-28 18:17:00,
2013-04-28 14:22:00,69.3,58.6,29.89,WSW,245,2.0,16.0,69,0.00,,,0.69,431.0,meteohub,2013-04-28 18:22:00,
2013-04-28 14:27:00,70.2,59.2,29.88,SW,219,5.0,16.0,68,0.00,,,0.69,671.0,meteohub,2013-04-28 18:27:00,
2013-04-28 14:32:00,69.4,57.9,29.88,SSW,205,6.0,16.0,67,0.00,,,0.69,281.0,meteohub,2013-04-28 18:32:00,
2013-04-28 14:37:00,68.9,57.9,29.88,South,169,5.0,15.0,68,0.00,,,0.69,169.0,meteohub,2013-04-28 18:37:00,
2013-04-28 14:42:00,68.5,57.6,29.88,SSW,205,5.0,15.0,68,0.00,,,0.69,90.0,meteohub,2013-04-28 18:42:00,
2013-04-28 14:48:00,68.0,57.9,29.89,NE,47,3.0,15.0,70,0.00,,,0.69,62.0,meteohub,2013-04-28 18:48:00,
2013-04-28 14:53:00,67.3,57.6,29.89,SE,145,7.0,15.0,71,0.00,,,0.69,88.0,meteohub,2013-04-28 18:53:00,
2013-04-28 14:58:00,66.7,57.7,29.89,SSE,150,6.0,16.0,73,0.00,,,0.69,183.0,meteohub,2013-04-28 18:58:00,
2013-04-28 15:03:00,66.4,57.9,29.89,WSW,240,5.0,16.0,74,0.00,,,0.69,118.0,meteohub,2013-04-28 19:03:00,
2013-04-28 15:08:00,66.0,57.9,29.89,SSW,205,3.0,15.0,75,0.00,,,0.69,105.0,meteohub,2013-04-28 19:08:00,
2013-04-28 15:13:00,65.8,58.1,29.89,SSE,161,3.0,15.0,76,0.00,,,0.69,214.0,meteohub,2013-04-28 19:13:00,
2013-04-28 15:18:00,66.0,57.6,29.89,West,266,9.0,15.0,74,0.00,,,0.69,141.0,meteohub,2013-04-28 19:18:00,
2013-04-28 15:23:00,66.0,58.3,29.89,South,179,6.0,10.0,76,0.00,,,0.69,144.0,meteohub,2013-04-28 19:23:00,
2013-04-28 15:28:00,65.5,59.2,29.88,South,169,2.0,14.0,80,0.00,,,0.69,279.0,meteohub,2013-04-28 19:28:00,
2013-04-28 15:33:00,65.7,59.4,29.88,WNW,297,3.0,14.0,80,0.00,,,0.69,230.0,meteohub,2013-04-28 19:33:00,
2013-04-28 15:39:00,65.7,59.4,29.88,WSW,247,4.0,14.0,80,0.00,,,0.69,95.0,meteohub,2013-04-28 19:39:00,
2013-04-28 15:44:00,65.3,59.4,29.88,NW,304,6.0,8.0,81,0.01,,,0.70,93.0,meteohub,2013-04-28 19:44:00,
2013-04-28 15:49:00,64.9,60.3,29.88,South,172,5.0,9.0,85,0.02,,,0.71,480.0,meteohub,2013-04-28 19:49:00,
2013-04-28 15:54:00,65.3,60.3,29.88,SSE,153,7.0,9.0,84,0.02,,,0.71,387.0,meteohub,2013-04-28 19:54:00,
2013-04-28 15:59:00,65.5,60.4,29.88,SSE,156,3.0,10.0,84,0.02,,,0.71,547.0,meteohub,2013-04-28 19:59:00,
2013-04-28 16:04:00,65.8,60.3,29.87,West,265,6.0,10.0,82,0.02,,,0.71,452.0,meteohub,2013-04-28 20:04:00,
2013-04-28 16:09:00,66.4,60.8,29.87,South,185,5.0,13.0,82,0.02,,,0.71,452.0,meteohub,2013-04-28 20:09:00,
2013-04-28 16:14:00,66.9,60.6,29.86,SSE,153,8.0,13.0,80,0.02,,,0.71,868.0,meteohub,2013-04-28 20:14:00,
2013-04-28 16:19:00,68.2,61.3,29.86,SSE,156,8.0,13.0,79,0.02,,,0.71,780.0,meteohub,2013-04-28 20:19:00,
2013-04-28 16:25:00,69.3,61.7,29.86,SSE,165,7.0,12.0,77,0.02,,,0.71,896.0,meteohub,2013-04-28 20:25:00,
2013-04-28 16:30:00,68.7,60.4,29.86,WSW,241,4.0,12.0,75,0.02,,,0.71,258.0,meteohub,2013-04-28 20:30:00,
2013-04-28 16:35:00,68.0,60.8,29.85,SSW,200,5.0,12.0,78,0.02,,,0.71,381.0,meteohub,2013-04-28 20:35:00,
2013-04-28 16:40:00,68.2,60.3,29.85,SE,144,5.0,15.0,76,0.02,,,0.71,216.0,meteohub,2013-04-28 20:40:00,
2013-04-28 16:45:00,67.8,60.3,29.85,ESE,107,2.0,15.0,77,0.00,,,0.71,118.0,meteohub,2013-04-28 20:45:00,
2013-04-28 16:50:00,67.5,60.1,29.85,NW,306,0.0,12.0,77,0.00,,,0.71,241.0,meteohub,2013-04-28 20:50:00,
2013-04-28 16:55:00,67.3,59.5,29.85,WSW,244,7.0,12.0,76,0.00,,,0.71,186.0,meteohub,2013-04-28 20:55:00,
2013-04-28 17:00:00,66.6,59.5,29.85,SSW,210,4.0,12.0,78,0.00,,,0.71,190.0,meteohub,2013-04-28 21:00:00,
2013-04-28 17:05:00,66.0,59.4,29.85,SE,137,5.0,17.0,79,0.00,,,0.71,163.0,meteohub,2013-04-28 21:05:00,
2013-04-28 17:10:00,65.5,59.5,29.86,South,185,5.0,17.0,81,0.00,,,0.71,49.0,meteohub,2013-04-28 21:10:00,
2013-04-28 17:15:00,64.8,59.2,29.86,SSE,156,6.0,16.0,82,0.00,,,0.71,83.0,meteohub,2013-04-28 21:15:00,
2013-04-28 17:21:00,63.9,59.0,29.87,SW,234,2.0,16.0,84,0.01,,,0.72,100.0,meteohub,2013-04-28 21:21:00,
2013-04-28 17:26:00,63.5,59.5,29.86,SSW,210,1.0,16.0,87,0.02,,,0.73,283.0,meteohub,2013-04-28 21:26:00,
2013-04-28 17:31:00,64.0,60.8,29.86,SSW,200,1.0,9.0,89,0.02,,,0.73,301.0,meteohub,2013-04-28 21:31:00,
2013-04-28 17:36:00,64.2,60.3,29.86,South,181,4.0,7.0,87,0.02,,,0.73,130.0,meteohub,2013-04-28 21:36:00,
2013-04-28 17:41:00,64.6,59.9,29.86,SW,227,7.0,7.0,85,0.02,,,0.73,132.0,meteohub,2013-04-28 21:41:00,
2013-04-28 17:46:00,64.6,59.4,29.86,WSW,250,5.0,14.0,83,0.02,,,0.73,114.0,meteohub,2013-04-28 21:46:00,
2013-04-28 17:51:00,64.4,59.2,29.86,WSW,256,9.0,14.0,83,0.02,,,0.73,33.0,meteohub,2013-04-28 21:51:00,
2013-04-28 17:56:00,63.9,58.6,29.88,West,274,7.0,15.0,83,0.02,,,0.73,19.0,meteohub,2013-04-28 21:56:00,
2013-04-28 18:01:00,63.0,58.1,29.88,WSW,250,9.0,15.0,84,0.02,,,0.73,76.0,meteohub,2013-04-28 22:01:00,
2013-04-28 18:06:00,62.4,57.9,29.88,WNW,292,10.0,15.0,85,0.02,,,0.73,102.0,meteohub,2013-04-28 22:06:00,
2013-04-28 18:12:00,62.2,57.4,29.88,West,275,3.0,11.0,84,0.02,,,0.73,109.0,meteohub,2013-04-28 22:12:00,
2013-04-28 18:17:00,62.2,57.7,29.89,WNW,297,6.0,11.0,85,0.01,,,0.73,114.0,meteohub,2013-04-28 22:17:00,
2013-04-28 18:22:00,62.2,57.7,29.88,WSW,257,3.0,11.0,85,0.01,,,0.73,76.0,meteohub,2013-04-28 22:22:00,
2013-04-28 18:27:00,62.4,57.9,29.89,West,259,4.0,11.0,85,0.00,,,0.73,69.0,meteohub,2013-04-28 22:27:00,
2013-04-28 18:32:00,62.4,57.9,29.89,West,275,4.0,9.0,85,0.00,,,0.73,79.0,meteohub,2013-04-28 22:32:00,
2013-04-28 18:37:00,62.4,57.9,29.89,SW,227,1.0,9.0,85,0.00,,,0.73,121.0,meteohub,2013-04-28 22:37:00,
2013-04-28 18:42:00,62.8,57.9,29.89,WSW,237,5.0,9.0,84,0.00,,,0.73,156.0,meteohub,2013-04-28 22:42:00,
2013-04-28 18:47:00,63.1,56.8,29.89,West,264,4.0,8.0,80,0.00,,,0.73,265.0,meteohub,2013-04-28 22:47:00,
2013-04-28 18:52:00,63.3,56.7,29.89,West,267,5.0,13.0,79,0.00,,,0.73,111.0,meteohub,2013-04-28 22:52:00,
2013-04-28 18:57:00,63.1,56.5,29.89,WNW,294,3.0,13.0,79,0.00,,,0.73,72.0,meteohub,2013-04-28 22:57:00,
2013-04-28 19:02:00,62.8,55.8,29.89,WSW,251,4.0,13.0,78,0.00,,,0.73,105.0,meteohub,2013-04-28 23:02:00,
2013-04-28 19:07:00,62.6,55.6,29.89,West,271,8.0,14.0,78,0.00,,,0.73,114.0,meteohub,2013-04-28 23:07:00,
2013-04-28 19:12:00,62.4,55.0,29.89,WNW,300,5.0,14.0,77,0.00,,,0.73,67.0,meteohub,2013-04-28 23:12:00,
2013-04-28 19:17:00,62.2,54.9,29.89,WNW,285,9.0,14.0,77,0.00,,,0.73,46.0,meteohub,2013-04-28 23:17:00,
2013-04-28 19:22:00,62.1,54.3,29.89,SW,233,3.0,12.0,76,0.00,,,0.73,33.0,meteohub,2013-04-28 23:22:00,
2013-04-28 19:27:00,61.9,54.7,29.89,SW,228,3.0,12.0,77,0.00,,,0.73,19.0,meteohub,2013-04-28 23:27:00,
2013-04-28 19:32:00,61.5,54.3,29.89,South,188,2.0,12.0,77,0.00,,,0.73,21.0,meteohub,2013-04-28 23:32:00,
2013-04-28 19:37:00,61.5,54.7,29.89,West,267,2.0,11.0,78,0.00,,,0.73,23.0,meteohub,2013-04-28 23:37:00,
2013-04-28 19:42:00,61.3,54.5,29.89,WSW,255,4.0,11.0,78,0.00,,,0.73,44.0,meteohub,2013-04-28 23:42:00,
2013-04-28 19:47:00,61.3,54.5,29.89,SW,225,2.0,9.0,78,0.00,,,0.73,42.0,meteohub,2013-04-28 23:47:00,
2013-04-28 19:52:00,61.3,54.5,29.89,West,262,1.0,8.0,78,0.00,,,0.73,49.0,meteohub,2013-04-28 23:52:00,
2013-04-28 19:57:00,61.2,54.0,29.89,West,270,3.0,8.0,77,0.00,,,0.73,37.0,meteohub,2013-04-28 23:57:00,
2013-04-28 20:02:00,61.0,54.1,29.90,West,260,2.0,9.0,78,0.00,,,0.73,30.0,meteohub,2013-04-29 00:02:00,
2013-04-28 20:07:00,60.8,54.0,29.90,WNW,294,1.0,9.0,78,0.00,,,0.00,21.0,meteohub,2013-04-29 00:07:00,
2013-04-28 20:12:00,60.6,54.1,29.91,NW,314,4.0,10.0,79,0.00,,,0.00,9.0,meteohub,2013-04-29 00:12:00,
2013-04-28 20:17:00,60.3,53.8,29.91,NW,307,5.0,10.0,79,0.00,,,0.00,5.0,meteohub,2013-04-29 00:17:00,
2013-04-28 20:22:00,60.1,53.6,29.91,West,275,11.0,12.0,79,0.00,,,0.00,0.0,meteohub,2013-04-29 00:22:00,
2013-04-28 20:27:00,59.9,53.8,29.91,WNW,290,3.0,13.0,80,0.00,,,0.00,0.0,meteohub,2013-04-29 00:27:00,
2013-04-28 20:33:00,59.7,54.0,29.91,WNW,283,4.0,13.0,81,0.00,,,0.00,0.0,meteohub,2013-04-29 00:33:00,
2013-04-28 20:38:00,59.7,54.0,29.91,West,275,1.0,13.0,81,0.00,,,0.00,0.0,meteohub,2013-04-29 00:38:00,
2013-04-28 20:43:00,59.5,53.8,29.92,NW,311,1.0,9.0,81,0.00,,,0.00,0.0,meteohub,2013-04-29 00:43:00,
2013-04-28 20:48:00,59.4,53.6,29.92,WSW,240,2.0,9.0,81,0.00,,,0.00,0.0,meteohub,2013-04-29 00:48:00,
2013-04-28 20:53:00,59.4,53.6,29.92,WSW,257,5.0,8.0,81,0.00,,,0.00,0.0,meteohub,2013-04-29 00:53:00,
2013-04-28 20:58:00,59.2,53.4,29.93,West,265,4.0,7.0,81,0.00,,,0.00,0.0,meteohub,2013-04-29 00:58:00,
2013-04-28 21:04:00,59.0,53.2,29.93,WSW,258,2.0,8.0,81,0.00,,,0.00,0.0,meteohub,2013-04-29 01:04:00,
2013-04-28 21:09:00,59.0,53.2,29.93,WSW,244,1.0,8.0,81,0.00,,,0.00,0.0,meteohub,2013-04-29 01:09:00,
2013-04-28 21:14:00,58.8,53.1,29.93,WNW,291,2.0,8.0,81,0.00,,,0.00,0.0,meteohub,2013-04-29 01:14:00,
2013-04-28 21:19:00,58.8,53.1,29.93,West,269,1.0,7.0,81,0.00,,,0.00,0.0,meteohub,2013-04-29 01:19:00,
2013-04-28 21:24:00,58.6,52.9,29.94,West,276,1.0,7.0,81,0.00,,,0.00,0.0,meteohub,2013-04-29 01:24:00,
2013-04-28 21:29:00,58.5,52.7,29.94,West,275,5.0,6.0,81,0.00,,,0.00,0.0,meteohub,2013-04-29 01:29:00,
2013-04-28 21:35:00,58.5,53.1,29.94,West,270,1.0,6.0,82,0.00,,,0.00,0.0,meteohub,2013-04-29 01:35:00,
2013-04-28 21:40:00,58.3,52.9,29.94,West,261,1.0,7.0,82,0.00,,,0.00,0.0,meteohub,2013-04-29 01:40:00,
2013-04-28 21:45:00,58.1,52.7,29.94,WSW,238,0.0,7.0,82,0.00,,,0.00,0.0,meteohub,2013-04-29 01:45:00,
2013-04-28 21:50:00,57.9,52.5,29.94,WSW,238,1.0,5.0,82,0.00,,,0.00,0.0,meteohub,2013-04-29 01:50:00,
2013-04-28 21:55:00,57.7,52.7,29.94,WSW,252,1.0,4.0,83,0.00,,,0.00,0.0,meteohub,2013-04-29 01:55:00,
2013-04-28 22:00:00,57.7,52.7,29.94,WNW,285,3.0,5.0,83,0.00,,,0.00,0.0,meteohub,2013-04-29 02:00:00,
2013-04-28 22:05:00,57.6,52.5,29.94,North,-999,-999.0,5.0,83,0.00,,,0.00,0.0,meteohub,2013-04-29 02:05:00,
2013-04-28 22:10:00,57.4,52.5,29.95,SW,236,2.0,3.0,84,0.00,,,0.00,0.0,meteohub,2013-04-29 02:10:00,
2013-04-28 22:16:00,57.2,52.3,29.95,WSW,247,2.0,5.0,84,0.00,,,0.00,0.0,meteohub,2013-04-29 02:16:00,
2013-04-28 22:21:00,57.0,52.2,29.95,WSW,247,0.0,5.0,84,0.00,,,0.00,0.0,meteohub,2013-04-29 02:21:00,
2013-04-28 22:26:00,56.7,52.2,29.96,WSW,247,0.0,5.0,85,0.00,,,0.00,0.0,meteohub,2013-04-29 02:26:00,
2013-04-28 22:31:00,56.3,51.8,29.96,WSW,247,0.0,3.0,85,0.00,,,0.00,0.0,meteohub,2013-04-29 02:31:00,
2013-04-28 22:36:00,55.9,51.4,29.95,WSW,247,0.0,1.0,85,0.00,,,0.00,0.0,meteohub,2013-04-29 02:36:00,
2013-04-28 22:41:00,55.6,51.4,29.96,WSW,247,0.0,1.0,86,0.00,,,0.00,0.0,meteohub,2013-04-29 02:41:00,
2013-04-28 22:46:00,55.0,51.6,29.96,South,182,2.0,2.0,88,0.00,,,0.00,0.0,meteohub,2013-04-29 02:46:00,
2013-04-28 22:52:00,54.7,51.3,29.96,SSE,166,1.0,2.0,88,0.00,,,0.00,0.0,meteohub,2013-04-29 02:52:00,
2013-04-28 22:57:00,54.3,51.1,29.96,SSE,166,0.0,3.0,89,0.00,,,0.00,0.0,meteohub,2013-04-29 02:57:00,
2013-04-28 23:02:00,54.1,50.9,29.96,West,273,2.0,3.0,89,0.00,,,0.00,0.0,meteohub,2013-04-29 03:02:00,
2013-04-28 23:07:00,53.8,50.5,29.96,West,273,0.0,3.0,89,0.00,,,0.00,0.0,meteohub,2013-04-29 03:07:00,
2013-04-28 23:12:00,53.4,50.2,29.96,West,273,0.0,2.0,89,0.00,,,0.00,0.0,meteohub,2013-04-29 03:12:00,
2013-04-28 23:17:00,53.2,50.4,29.96,West,273,0.0,2.0,90,0.00,,,0.00,0.0,meteohub,2013-04-29 03:17:00,
2013-04-28 23:22:00,53.1,50.2,29.96,West,273,0.0,1.0,90,0.00,,,0.00,0.0,meteohub,2013-04-29 03:22:00,
2013-04-28 23:27:00,52.9,50.0,29.97,West,273,0.0,1.0,90,0.00,,,0.00,0.0,meteohub,2013-04-29 03:27:00,
2013-04-28 23:32:00,52.3,49.5,29.97,West,273,0.0,1.0,90,0.00,,,0.00,0.0,meteohub,2013-04-29 03:32:00,
2013-04-28 23:37:00,52.2,49.3,29.97,West,273,0.0,0.0,90,0.00,,,0.00,0.0,meteohub,2013-04-29 03:37:00,
2013-04-28 23:42:00,52.0,49.6,29.96,West,273,0.0,0.0,92,0.00,,,0.00,0.0,meteohub,2013-04-29 03:42:00,
2013-04-28 23:47:00,51.8,49.3,29.96,West,273,0.0,0.0,91,0.00,,,0.00,0.0,meteohub,2013-04-29 03:47:00,
2013-04-28 23:53:00,51.6,49.1,29.97,West,273,0.0,0.0,91,0.00,,,0.00,0.0,meteohub,2013-04-29 03:53:00,
2013-04-28 23:58:00,51.3,48.7,29.97,West,273,0.0,0.0,91,0.00,,,0.00,0.0,meteohub,2013-04-29 03:58:00,